sensor_id;sensor_type;location;lat;lon;timestamp;P1;durP1;ratioP1;P2;durP2;ratioP2
2940;SDS011;1480;51.456;6.670;2023-12-07T00:00:39;17.03;;;11.17;;
2940;SDS011;1480;51.456;6.670;2023-12-07T00:03:06;17.63;;;11.17;;
2940;SDS011;1480;51.456;6.670;2023-12-07T00:05:33;21.57;;;12.73;;
2940;SDS011;1480;51.456;6.670;2023-12-07T00:07:59;20.50;;;11.90;;
2940;SDS011;1480;51.456;6.670;2023-12-07T00:10:27;15.23;;;10.50;;
2940;SDS011;1480;51.456;6.670;2023-12-07T00:12:54;21.47;;;10.50;;
2940;SDS011;1480;51.456;6.670;2023-12-07T00:15:21;19.40;;;10.40;;
2940;SDS011;1480;51.456;6.670;2023-12-07T00:17:47;19.77;;;10.20;;
2940;SDS011;1480;51.456;6.670;2023-12-07T00:20:14;23.90;;;10.87;;
2940;SDS011;1480;51.456;6.670;2023-12-07T00:22:41;16.23;;;10.20;;
2940;SDS011;1480;51.456;6.670;2023-12-07T00:25:08;21.03;;;12.37;;
2940;SDS011;1480;51.456;6.670;2023-12-07T00:27:36;14.50;;;10.70;;
2940;SDS011;1480;51.456;6.670;2023-12-07T00:30:02;18.23;;;11.80;;
2940;SDS011;1480;51.456;6.670;2023-12-07T00:32:30;14.80;;;9.70;;
2940;SDS011;1480;51.456;6.670;2023-12-07T00:34:56;16.73;;;11.37;;
2940;SDS011;1480;51.456;6.670;2023-12-07T00:37:23;17.27;;;11.67;;
2940;SDS011;1480;51.456;6.670;2023-12-07T00:39:50;22.57;;;10.10;;
2940;SDS011;1480;51.456;6.670;2023-12-07T00:42:16;17.47;;;11.37;;
2940;SDS011;1480;51.456;6.670;2023-12-07T00:44:44;17.60;;;10.20;;
2940;SDS011;1480;51.456;6.670;2023-12-07T00:47:11;22.70;;;14.60;;
2940;SDS011;1480;51.456;6.670;2023-12-07T00:49:37;16.23;;;11.70;;
2940;SDS011;1480;51.456;6.670;2023-12-07T00:52:05;20.57;;;10.77;;
2940;SDS011;1480;51.456;6.670;2023-12-07T00:54:32;20.03;;;12.93;;
2940;SDS011;1480;51.456;6.670;2023-12-07T00:56:59;21.30;;;12.13;;
2940;SDS011;1480;51.456;6.670;2023-12-07T00:59:25;16.23;;;11.57;;
2940;SDS011;1480;51.456;6.670;2023-12-07T01:01:53;20.83;;;12.43;;
2940;SDS011;1480;51.456;6.670;2023-12-07T01:04:20;21.60;;;11.87;;
2940;SDS011;1480;51.456;6.670;2023-12-07T01:06:47;23.23;;;14.37;;
2940;SDS011;1480;51.456;6.670;2023-12-07T01:09:13;19.00;;;12.80;;
2940;SDS011;1480;51.456;6.670;2023-12-07T01:11:40;18.83;;;12.57;;
2940;SDS011;1480;51.456;6.670;2023-12-07T01:14:07;32.37;;;17.93;;
2940;SDS011;1480;51.456;6.670;2023-12-07T01:16:33;19.53;;;12.23;;
2940;SDS011;1480;51.456;6.670;2023-12-07T01:19:01;22.03;;;14.60;;
2940;SDS011;1480;51.456;6.670;2023-12-07T01:21:28;29.70;;;15.07;;
2940;SDS011;1480;51.456;6.670;2023-12-07T01:23:55;24.70;;;15.23;;
2940;SDS011;1480;51.456;6.670;2023-12-07T01:26:21;25.40;;;15.33;;
2940;SDS011;1480;51.456;6.670;2023-12-07T01:28:48;25.00;;;13.00;;
2940;SDS011;1480;51.456;6.670;2023-12-07T01:31:15;18.90;;;10.27;;
2940;SDS011;1480;51.456;6.670;2023-12-07T01:33:42;28.03;;;15.40;;
2940;SDS011;1480;51.456;6.670;2023-12-07T01:36:10;22.67;;;15.43;;
2940;SDS011;1480;51.456;6.670;2023-12-07T01:38:37;18.20;;;10.77;;
2940;SDS011;1480;51.456;6.670;2023-12-07T01:41:04;19.63;;;12.80;;
2940;SDS011;1480;51.456;6.670;2023-12-07T01:43:30;22.37;;;13.80;;
2940;SDS011;1480;51.456;6.670;2023-12-07T01:45:57;30.00;;;15.70;;
2940;SDS011;1480;51.456;6.670;2023-12-07T01:48:24;22.60;;;13.70;;
2940;SDS011;1480;51.456;6.670;2023-12-07T01:50:52;22.77;;;13.37;;
2940;SDS011;1480;51.456;6.670;2023-12-07T01:53:21;25.80;;;14.80;;
2940;SDS011;1480;51.456;6.670;2023-12-07T01:55:49;24.40;;;14.07;;
2940;SDS011;1480;51.456;6.670;2023-12-07T01:58:17;27.63;;;13.37;;
2940;SDS011;1480;51.456;6.670;2023-12-07T02:00:44;20.87;;;12.60;;
2940;SDS011;1480;51.456;6.670;2023-12-07T02:03:11;23.97;;;13.70;;
2940;SDS011;1480;51.456;6.670;2023-12-07T02:05:39;32.47;;;13.80;;
2940;SDS011;1480;51.456;6.670;2023-12-07T02:08:07;19.10;;;13.93;;
2940;SDS011;1480;51.456;6.670;2023-12-07T02:10:35;21.20;;;13.40;;
2940;SDS011;1480;51.456;6.670;2023-12-07T02:13:02;26.13;;;13.10;;
2940;SDS011;1480;51.456;6.670;2023-12-07T02:15:29;20.37;;;11.30;;
2940;SDS011;1480;51.456;6.670;2023-12-07T02:17:57;28.30;;;13.87;;
2940;SDS011;1480;51.456;6.670;2023-12-07T02:20:31;18.70;;;13.57;;
2940;SDS011;1480;51.456;6.670;2023-12-07T02:23:03;25.47;;;13.33;;
2940;SDS011;1480;51.456;6.670;2023-12-07T02:25:31;19.53;;;13.83;;
2940;SDS011;1480;51.456;6.670;2023-12-07T02:28:03;22.20;;;13.37;;
2940;SDS011;1480;51.456;6.670;2023-12-07T02:30:30;23.90;;;14.77;;
2940;SDS011;1480;51.456;6.670;2023-12-07T02:32:57;26.23;;;14.40;;
2940;SDS011;1480;51.456;6.670;2023-12-07T02:35:24;23.07;;;14.40;;
2940;SDS011;1480;51.456;6.670;2023-12-07T02:37:51;26.80;;;13.70;;
2940;SDS011;1480;51.456;6.670;2023-12-07T02:40:19;23.87;;;14.00;;
2940;SDS011;1480;51.456;6.670;2023-12-07T02:42:47;27.23;;;14.27;;
2940;SDS011;1480;51.456;6.670;2023-12-07T02:45:15;33.33;;;14.77;;
2940;SDS011;1480;51.456;6.670;2023-12-07T02:47:42;31.60;;;15.87;;
2940;SDS011;1480;51.456;6.670;2023-12-07T02:50:10;21.47;;;13.47;;
2940;SDS011;1480;51.456;6.670;2023-12-07T02:52:37;27.20;;;13.87;;
2940;SDS011;1480;51.456;6.670;2023-12-07T02:55:04;24.87;;;14.40;;
2940;SDS011;1480;51.456;6.670;2023-12-07T02:57:32;27.23;;;14.17;;
2940;SDS011;1480;51.456;6.670;2023-12-07T02:59:59;22.63;;;12.70;;
2940;SDS011;1480;51.456;6.670;2023-12-07T03:02:28;31.90;;;14.43;;
2940;SDS011;1480;51.456;6.670;2023-12-07T03:04:55;22.70;;;13.53;;
2940;SDS011;1480;51.456;6.670;2023-12-07T03:07:21;22.73;;;14.67;;
2940;SDS011;1480;51.456;6.670;2023-12-07T03:09:48;37.67;;;16.70;;
2940;SDS011;1480;51.456;6.670;2023-12-07T03:12:15;23.93;;;13.50;;
2940;SDS011;1480;51.456;6.670;2023-12-07T03:14:41;23.17;;;14.33;;
2940;SDS011;1480;51.456;6.670;2023-12-07T03:17:08;30.00;;;14.33;;
2940;SDS011;1480;51.456;6.670;2023-12-07T03:19:38;22.30;;;12.77;;
2940;SDS011;1480;51.456;6.670;2023-12-07T03:22:05;22.63;;;13.50;;
2940;SDS011;1480;51.456;6.670;2023-12-07T03:24:32;18.63;;;11.03;;
2940;SDS011;1480;51.456;6.670;2023-12-07T03:27:00;26.53;;;12.97;;
2940;SDS011;1480;51.456;6.670;2023-12-07T03:29:26;28.50;;;13.63;;
2940;SDS011;1480;51.456;6.670;2023-12-07T03:31:53;25.70;;;15.13;;
2940;SDS011;1480;51.456;6.670;2023-12-07T03:34:20;22.50;;;12.60;;
2940;SDS011;1480;51.456;6.670;2023-12-07T03:36:48;22.93;;;13.17;;
2940;SDS011;1480;51.456;6.670;2023-12-07T03:39:15;24.93;;;13.07;;
2940;SDS011;1480;51.456;6.670;2023-12-07T03:41:43;21.23;;;12.77;;
2940;SDS011;1480;51.456;6.670;2023-12-07T03:44:10;17.83;;;11.57;;
2940;SDS011;1480;51.456;6.670;2023-12-07T03:46:37;21.20;;;11.70;;
2940;SDS011;1480;51.456;6.670;2023-12-07T03:49:03;30.13;;;14.57;;
2940;SDS011;1480;51.456;6.670;2023-12-07T03:51:30;24.87;;;13.30;;
2940;SDS011;1480;51.456;6.670;2023-12-07T03:53:58;21.00;;;12.30;;
2940;SDS011;1480;51.456;6.670;2023-12-07T03:56:25;23.50;;;12.80;;
2940;SDS011;1480;51.456;6.670;2023-12-07T03:58:52;21.30;;;12.20;;
2940;SDS011;1480;51.456;6.670;2023-12-07T04:01:21;19.90;;;12.47;;
2940;SDS011;1480;51.456;6.670;2023-12-07T04:03:48;18.60;;;12.13;;
2940;SDS011;1480;51.456;6.670;2023-12-07T04:06:15;19.40;;;12.03;;
2940;SDS011;1480;51.456;6.670;2023-12-07T04:08:42;26.40;;;11.40;;
2940;SDS011;1480;51.456;6.670;2023-12-07T04:11:09;18.70;;;11.93;;
2940;SDS011;1480;51.456;6.670;2023-12-07T04:13:36;20.50;;;12.07;;
2940;SDS011;1480;51.456;6.670;2023-12-07T04:16:03;21.07;;;11.90;;
2940;SDS011;1480;51.456;6.670;2023-12-07T04:18:30;21.93;;;13.70;;
2940;SDS011;1480;51.456;6.670;2023-12-07T04:20:57;18.93;;;11.20;;
2940;SDS011;1480;51.456;6.670;2023-12-07T04:23:24;22.20;;;13.40;;
2940;SDS011;1480;51.456;6.670;2023-12-07T04:25:51;25.63;;;12.27;;
2940;SDS011;1480;51.456;6.670;2023-12-07T04:28:19;20.47;;;11.70;;
2940;SDS011;1480;51.456;6.670;2023-12-07T04:30:45;24.87;;;13.07;;
2940;SDS011;1480;51.456;6.670;2023-12-07T04:33:12;21.50;;;12.53;;
2940;SDS011;1480;51.456;6.670;2023-12-07T04:35:39;24.93;;;13.43;;
2940;SDS011;1480;51.456;6.670;2023-12-07T04:38:05;18.70;;;11.87;;
2940;SDS011;1480;51.456;6.670;2023-12-07T04:40:32;24.63;;;14.47;;
2940;SDS011;1480;51.456;6.670;2023-12-07T04:42:59;16.30;;;10.53;;
2940;SDS011;1480;51.456;6.670;2023-12-07T04:45:27;25.83;;;13.27;;
2940;SDS011;1480;51.456;6.670;2023-12-07T04:47:53;21.80;;;13.57;;
2940;SDS011;1480;51.456;6.670;2023-12-07T04:50:22;25.77;;;13.87;;
2940;SDS011;1480;51.456;6.670;2023-12-07T04:52:48;31.13;;;14.47;;
2940;SDS011;1480;51.456;6.670;2023-12-07T04:55:15;20.10;;;12.10;;
2940;SDS011;1480;51.456;6.670;2023-12-07T04:57:42;18.37;;;11.10;;
2940;SDS011;1480;51.456;6.670;2023-12-07T05:00:09;24.87;;;14.20;;
2940;SDS011;1480;51.456;6.670;2023-12-07T05:02:38;20.87;;;14.23;;
2940;SDS011;1480;51.456;6.670;2023-12-07T05:05:05;30.77;;;14.60;;
2940;SDS011;1480;51.456;6.670;2023-12-07T05:07:32;24.20;;;13.43;;
2940;SDS011;1480;51.456;6.670;2023-12-07T05:09:58;36.93;;;13.87;;
2940;SDS011;1480;51.456;6.670;2023-12-07T05:12:25;20.67;;;12.57;;
2940;SDS011;1480;51.456;6.670;2023-12-07T05:14:52;23.20;;;13.30;;
2940;SDS011;1480;51.456;6.670;2023-12-07T05:17:19;27.73;;;12.80;;
2940;SDS011;1480;51.456;6.670;2023-12-07T05:19:47;19.20;;;12.43;;
2940;SDS011;1480;51.456;6.670;2023-12-07T05:22:14;29.93;;;16.20;;
2940;SDS011;1480;51.456;6.670;2023-12-07T05:24:40;29.27;;;15.47;;
2940;SDS011;1480;51.456;6.670;2023-12-07T05:27:07;26.17;;;13.07;;
2940;SDS011;1480;51.456;6.670;2023-12-07T05:29:34;25.43;;;13.40;;
2940;SDS011;1480;51.456;6.670;2023-12-07T05:32:00;20.07;;;13.27;;
2940;SDS011;1480;51.456;6.670;2023-12-07T05:34:27;31.70;;;13.30;;
2940;SDS011;1480;51.456;6.670;2023-12-07T05:36:55;37.43;;;16.70;;
2940;SDS011;1480;51.456;6.670;2023-12-07T05:39:21;40.87;;;16.10;;
2940;SDS011;1480;51.456;6.670;2023-12-07T05:41:48;28.87;;;16.40;;
2940;SDS011;1480;51.456;6.670;2023-12-07T05:44:15;32.77;;;17.90;;
2940;SDS011;1480;51.456;6.670;2023-12-07T05:46:46;32.30;;;15.43;;
2940;SDS011;1480;51.456;6.670;2023-12-07T05:49:13;32.70;;;16.30;;
2940;SDS011;1480;51.456;6.670;2023-12-07T05:51:40;27.23;;;13.63;;
2940;SDS011;1480;51.456;6.670;2023-12-07T05:54:08;32.50;;;18.97;;
2940;SDS011;1480;51.456;6.670;2023-12-07T05:56:34;38.23;;;16.60;;
2940;SDS011;1480;51.456;6.670;2023-12-07T05:59:01;36.60;;;14.83;;
2940;SDS011;1480;51.456;6.670;2023-12-07T06:01:28;43.37;;;18.00;;
2940;SDS011;1480;51.456;6.670;2023-12-07T06:03:54;38.33;;;17.40;;
2940;SDS011;1480;51.456;6.670;2023-12-07T06:06:21;39.70;;;17.47;;
2940;SDS011;1480;51.456;6.670;2023-12-07T06:08:48;39.93;;;17.33;;
2940;SDS011;1480;51.456;6.670;2023-12-07T06:11:16;31.20;;;14.73;;
2940;SDS011;1480;51.456;6.670;2023-12-07T06:13:42;31.37;;;15.63;;
2940;SDS011;1480;51.456;6.670;2023-12-07T06:16:11;30.70;;;16.53;;
2940;SDS011;1480;51.456;6.670;2023-12-07T06:18:39;27.60;;;14.63;;
2940;SDS011;1480;51.456;6.670;2023-12-07T06:21:05;35.80;;;17.57;;
2940;SDS011;1480;51.456;6.670;2023-12-07T06:23:32;31.10;;;15.53;;
2940;SDS011;1480;51.456;6.670;2023-12-07T06:26:00;34.87;;;15.47;;
2940;SDS011;1480;51.456;6.670;2023-12-07T06:28:29;40.53;;;17.73;;
2940;SDS011;1480;51.456;6.670;2023-12-07T06:30:57;31.20;;;16.50;;
2940;SDS011;1480;51.456;6.670;2023-12-07T06:33:24;39.03;;;17.20;;
2940;SDS011;1480;51.456;6.670;2023-12-07T06:35:50;34.47;;;16.23;;
2940;SDS011;1480;51.456;6.670;2023-12-07T06:38:17;49.13;;;18.27;;
2940;SDS011;1480;51.456;6.670;2023-12-07T06:40:45;35.30;;;18.00;;
2940;SDS011;1480;51.456;6.670;2023-12-07T06:43:12;38.47;;;16.90;;
2940;SDS011;1480;51.456;6.670;2023-12-07T06:45:40;36.70;;;18.30;;
2940;SDS011;1480;51.456;6.670;2023-12-07T06:48:08;45.00;;;18.90;;
2940;SDS011;1480;51.456;6.670;2023-12-07T06:50:34;38.70;;;18.50;;
2940;SDS011;1480;51.456;6.670;2023-12-07T06:53:01;39.80;;;15.87;;
2940;SDS011;1480;51.456;6.670;2023-12-07T06:55:28;32.97;;;17.13;;
2940;SDS011;1480;51.456;6.670;2023-12-07T06:57:54;38.90;;;16.37;;
2940;SDS011;1480;51.456;6.670;2023-12-07T07:00:21;47.73;;;17.93;;
2940;SDS011;1480;51.456;6.670;2023-12-07T07:02:51;47.00;;;16.63;;
2940;SDS011;1480;51.456;6.670;2023-12-07T07:05:17;39.20;;;17.73;;
2940;SDS011;1480;51.456;6.670;2023-12-07T07:07:45;50.77;;;20.20;;
2940;SDS011;1480;51.456;6.670;2023-12-07T07:10:11;38.43;;;18.10;;
2940;SDS011;1480;51.456;6.670;2023-12-07T07:12:38;39.67;;;16.90;;
2940;SDS011;1480;51.456;6.670;2023-12-07T07:15:06;38.13;;;17.93;;
2940;SDS011;1480;51.456;6.670;2023-12-07T07:17:33;34.93;;;17.53;;
2940;SDS011;1480;51.456;6.670;2023-12-07T07:20:01;38.63;;;18.17;;
2940;SDS011;1480;51.456;6.670;2023-12-07T07:22:28;47.13;;;23.10;;
2940;SDS011;1480;51.456;6.670;2023-12-07T07:24:55;55.00;;;20.87;;
2940;SDS011;1480;51.456;6.670;2023-12-07T07:27:22;34.20;;;18.80;;
2940;SDS011;1480;51.456;6.670;2023-12-07T07:29:48;45.40;;;17.87;;
2940;SDS011;1480;51.456;6.670;2023-12-07T07:32:15;38.60;;;18.30;;
2940;SDS011;1480;51.456;6.670;2023-12-07T07:34:42;53.70;;;19.20;;
2940;SDS011;1480;51.456;6.670;2023-12-07T07:37:10;40.73;;;16.93;;
2940;SDS011;1480;51.456;6.670;2023-12-07T07:39:37;38.30;;;18.53;;
2940;SDS011;1480;51.456;6.670;2023-12-07T07:42:04;38.60;;;18.00;;
2940;SDS011;1480;51.456;6.670;2023-12-07T07:44:31;36.53;;;17.33;;
2940;SDS011;1480;51.456;6.670;2023-12-07T07:46:57;44.03;;;17.30;;
2940;SDS011;1480;51.456;6.670;2023-12-07T07:49:24;27.43;;;17.00;;
2940;SDS011;1480;51.456;6.670;2023-12-07T07:51:51;34.90;;;17.13;;
2940;SDS011;1480;51.456;6.670;2023-12-07T07:54:19;41.03;;;17.67;;
2940;SDS011;1480;51.456;6.670;2023-12-07T07:56:45;40.33;;;18.47;;
2940;SDS011;1480;51.456;6.670;2023-12-07T07:59:12;37.57;;;17.27;;
2940;SDS011;1480;51.456;6.670;2023-12-07T08:01:39;41.47;;;17.50;;
2940;SDS011;1480;51.456;6.670;2023-12-07T08:04:08;44.20;;;18.30;;
2940;SDS011;1480;51.456;6.670;2023-12-07T08:06:35;30.87;;;16.07;;
2940;SDS011;1480;51.456;6.670;2023-12-07T08:09:02;37.00;;;17.43;;
2940;SDS011;1480;51.456;6.670;2023-12-07T08:11:30;40.77;;;18.07;;
2940;SDS011;1480;51.456;6.670;2023-12-07T08:13:57;32.73;;;15.83;;
2940;SDS011;1480;51.456;6.670;2023-12-07T08:16:24;38.60;;;17.87;;
2940;SDS011;1480;51.456;6.670;2023-12-07T08:18:52;31.00;;;15.93;;
2940;SDS011;1480;51.456;6.670;2023-12-07T08:21:19;33.17;;;17.60;;
2940;SDS011;1480;51.456;6.670;2023-12-07T08:23:46;27.17;;;14.47;;
2940;SDS011;1480;51.456;6.670;2023-12-07T08:26:12;41.43;;;16.07;;
2940;SDS011;1480;51.456;6.670;2023-12-07T08:28:40;36.13;;;16.30;;
2940;SDS011;1480;51.456;6.670;2023-12-07T08:31:07;38.83;;;18.03;;
2940;SDS011;1480;51.456;6.670;2023-12-07T08:33:34;29.37;;;15.73;;
2940;SDS011;1480;51.456;6.670;2023-12-07T08:36:01;32.27;;;16.20;;
2940;SDS011;1480;51.456;6.670;2023-12-07T08:38:28;30.40;;;16.27;;
2940;SDS011;1480;51.456;6.670;2023-12-07T08:40:54;24.17;;;13.60;;
2940;SDS011;1480;51.456;6.670;2023-12-07T08:43:23;33.57;;;16.03;;
2940;SDS011;1480;51.456;6.670;2023-12-07T08:45:51;27.13;;;13.10;;
2940;SDS011;1480;51.456;6.670;2023-12-07T08:48:18;30.50;;;14.43;;
2940;SDS011;1480;51.456;6.670;2023-12-07T08:50:45;29.77;;;13.57;;
2940;SDS011;1480;51.456;6.670;2023-12-07T08:53:12;21.50;;;12.23;;
2940;SDS011;1480;51.456;6.670;2023-12-07T08:55:39;23.97;;;13.03;;
2940;SDS011;1480;51.456;6.670;2023-12-07T08:58:06;26.37;;;12.23;;
2940;SDS011;1480;51.456;6.670;2023-12-07T09:00:33;19.93;;;11.33;;
2940;SDS011;1480;51.456;6.670;2023-12-07T09:03:01;25.80;;;13.30;;
2940;SDS011;1480;51.456;6.670;2023-12-07T09:05:27;44.07;;;12.00;;
2940;SDS011;1480;51.456;6.670;2023-12-07T09:07:55;22.97;;;13.07;;
2940;SDS011;1480;51.456;6.670;2023-12-07T09:10:21;30.50;;;14.10;;
2940;SDS011;1480;51.456;6.670;2023-12-07T09:12:48;30.37;;;14.17;;
2940;SDS011;1480;51.456;6.670;2023-12-07T09:15:15;24.27;;;13.50;;
2940;SDS011;1480;51.456;6.670;2023-12-07T09:17:41;27.47;;;15.07;;
2940;SDS011;1480;51.456;6.670;2023-12-07T09:20:10;34.73;;;14.80;;
2940;SDS011;1480;51.456;6.670;2023-12-07T09:22:38;26.23;;;12.77;;
2940;SDS011;1480;51.456;6.670;2023-12-07T09:25:06;34.07;;;15.10;;
2940;SDS011;1480;51.456;6.670;2023-12-07T09:27:33;33.03;;;14.97;;
2940;SDS011;1480;51.456;6.670;2023-12-07T09:30:03;26.07;;;14.30;;
2940;SDS011;1480;51.456;6.670;2023-12-07T09:32:31;37.53;;;17.37;;
2940;SDS011;1480;51.456;6.670;2023-12-07T09:35:03;30.70;;;15.13;;
2940;SDS011;1480;51.456;6.670;2023-12-07T09:37:32;27.20;;;11.93;;
2940;SDS011;1480;51.456;6.670;2023-12-07T09:39:58;31.30;;;16.10;;
2940;SDS011;1480;51.456;6.670;2023-12-07T09:42:25;40.47;;;16.20;;
2940;SDS011;1480;51.456;6.670;2023-12-07T09:44:52;31.47;;;14.37;;
2940;SDS011;1480;51.456;6.670;2023-12-07T09:47:18;35.43;;;16.53;;
2940;SDS011;1480;51.456;6.670;2023-12-07T09:49:45;35.93;;;15.60;;
2940;SDS011;1480;51.456;6.670;2023-12-07T09:52:12;35.77;;;14.83;;
2940;SDS011;1480;51.456;6.670;2023-12-07T09:54:41;34.10;;;15.83;;
2940;SDS011;1480;51.456;6.670;2023-12-07T09:57:08;27.57;;;16.90;;
2940;SDS011;1480;51.456;6.670;2023-12-07T09:59:35;30.27;;;13.90;;
2940;SDS011;1480;51.456;6.670;2023-12-07T10:02:02;31.20;;;17.27;;
2940;SDS011;1480;51.456;6.670;2023-12-07T10:04:29;37.43;;;18.20;;
2940;SDS011;1480;51.456;6.670;2023-12-07T10:06:56;24.63;;;15.17;;
2940;SDS011;1480;51.456;6.670;2023-12-07T10:09:23;27.20;;;17.10;;
2940;SDS011;1480;51.456;6.670;2023-12-07T10:11:51;40.50;;;16.20;;
2940;SDS011;1480;51.456;6.670;2023-12-07T10:14:28;25.47;;;15.20;;
2940;SDS011;1480;51.456;6.670;2023-12-07T10:16:55;32.87;;;15.13;;
2940;SDS011;1480;51.456;6.670;2023-12-07T10:19:22;21.23;;;14.33;;
2940;SDS011;1480;51.456;6.670;2023-12-07T10:21:49;25.13;;;14.77;;
2940;SDS011;1480;51.456;6.670;2023-12-07T10:24:17;35.03;;;15.80;;
2940;SDS011;1480;51.456;6.670;2023-12-07T10:26:44;27.33;;;13.63;;
2940;SDS011;1480;51.456;6.670;2023-12-07T10:29:13;22.90;;;13.70;;
2940;SDS011;1480;51.456;6.670;2023-12-07T10:31:41;26.97;;;14.27;;
2940;SDS011;1480;51.456;6.670;2023-12-07T10:34:09;18.87;;;12.90;;
2940;SDS011;1480;51.456;6.670;2023-12-07T10:36:35;24.70;;;14.50;;
2940;SDS011;1480;51.456;6.670;2023-12-07T10:39:02;25.53;;;13.50;;
2940;SDS011;1480;51.456;6.670;2023-12-07T10:41:31;33.80;;;15.23;;
2940;SDS011;1480;51.456;6.670;2023-12-07T10:44:00;24.13;;;13.77;;
2940;SDS011;1480;51.456;6.670;2023-12-07T10:46:29;23.23;;;15.10;;
2940;SDS011;1480;51.456;6.670;2023-12-07T10:48:59;24.60;;;15.47;;
2940;SDS011;1480;51.456;6.670;2023-12-07T10:51:28;22.27;;;13.50;;
2940;SDS011;1480;51.456;6.670;2023-12-07T10:53:57;19.40;;;12.37;;
2940;SDS011;1480;51.456;6.670;2023-12-07T10:56:24;20.27;;;11.00;;
2940;SDS011;1480;51.456;6.670;2023-12-07T10:58:55;26.53;;;13.50;;
2940;SDS011;1480;51.456;6.670;2023-12-07T11:01:21;22.73;;;13.07;;
2940;SDS011;1480;51.456;6.670;2023-12-07T11:03:50;15.10;;;8.93;;
2940;SDS011;1480;51.456;6.670;2023-12-07T11:06:18;21.20;;;11.60;;
2940;SDS011;1480;51.456;6.670;2023-12-07T11:08:47;23.80;;;11.53;;
2940;SDS011;1480;51.456;6.670;2023-12-07T11:11:18;23.93;;;11.50;;
2940;SDS011;1480;51.456;6.670;2023-12-07T11:13:49;25.60;;;12.27;;
2940;SDS011;1480;51.456;6.670;2023-12-07T11:16:28;18.60;;;11.57;;
2940;SDS011;1480;51.456;6.670;2023-12-07T11:18:56;25.40;;;11.77;;
2940;SDS011;1480;51.456;6.670;2023-12-07T11:21:24;31.30;;;10.90;;
2940;SDS011;1480;51.456;6.670;2023-12-07T11:23:51;13.23;;;9.00;;
2940;SDS011;1480;51.456;6.670;2023-12-07T11:26:20;17.07;;;10.13;;
2940;SDS011;1480;51.456;6.670;2023-12-07T11:28:46;17.47;;;9.43;;
2940;SDS011;1480;51.456;6.670;2023-12-07T11:31:14;14.63;;;8.70;;
2940;SDS011;1480;51.456;6.670;2023-12-07T11:33:41;16.03;;;9.60;;
2940;SDS011;1480;51.456;6.670;2023-12-07T11:36:10;18.37;;;10.20;;
2940;SDS011;1480;51.456;6.670;2023-12-07T11:38:37;14.23;;;8.87;;
2940;SDS011;1480;51.456;6.670;2023-12-07T11:41:05;15.40;;;9.17;;
2940;SDS011;1480;51.456;6.670;2023-12-07T11:43:41;17.87;;;9.10;;
2940;SDS011;1480;51.456;6.670;2023-12-07T11:46:11;15.83;;;8.90;;
2940;SDS011;1480;51.456;6.670;2023-12-07T11:48:39;12.83;;;8.37;;
2940;SDS011;1480;51.456;6.670;2023-12-07T11:51:06;14.60;;;10.23;;
2940;SDS011;1480;51.456;6.670;2023-12-07T11:53:35;16.43;;;7.23;;
2940;SDS011;1480;51.456;6.670;2023-12-07T11:56:03;12.17;;;7.93;;
2940;SDS011;1480;51.456;6.670;2023-12-07T11:58:31;12.23;;;7.40;;
2940;SDS011;1480;51.456;6.670;2023-12-07T12:00:59;14.30;;;7.97;;
2940;SDS011;1480;51.456;6.670;2023-12-07T12:03:26;13.57;;;8.27;;
2940;SDS011;1480;51.456;6.670;2023-12-07T12:05:54;11.50;;;7.90;;
2940;SDS011;1480;51.456;6.670;2023-12-07T12:08:21;15.27;;;6.87;;
2940;SDS011;1480;51.456;6.670;2023-12-07T12:10:50;15.23;;;7.87;;
2940;SDS011;1480;51.456;6.670;2023-12-07T12:13:19;21.30;;;10.80;;
2940;SDS011;1480;51.456;6.670;2023-12-07T12:15:45;14.63;;;7.77;;
2940;SDS011;1480;51.456;6.670;2023-12-07T12:18:12;15.40;;;8.17;;
2940;SDS011;1480;51.456;6.670;2023-12-07T12:20:41;11.80;;;7.67;;
2940;SDS011;1480;51.456;6.670;2023-12-07T12:23:08;14.20;;;6.83;;
2940;SDS011;1480;51.456;6.670;2023-12-07T12:25:35;12.97;;;7.67;;
2940;SDS011;1480;51.456;6.670;2023-12-07T12:28:03;13.67;;;7.50;;
2940;SDS011;1480;51.456;6.670;2023-12-07T12:30:31;17.03;;;8.57;;
2940;SDS011;1480;51.456;6.670;2023-12-07T12:32:58;14.63;;;8.50;;
2940;SDS011;1480;51.456;6.670;2023-12-07T12:35:25;14.10;;;8.33;;
2940;SDS011;1480;51.456;6.670;2023-12-07T12:37:52;11.70;;;7.17;;
2940;SDS011;1480;51.456;6.670;2023-12-07T12:40:20;10.63;;;6.83;;
2940;SDS011;1480;51.456;6.670;2023-12-07T12:42:48;14.73;;;8.43;;
2940;SDS011;1480;51.456;6.670;2023-12-07T12:45:17;16.10;;;8.20;;
2940;SDS011;1480;51.456;6.670;2023-12-07T12:47:44;13.40;;;8.57;;
2940;SDS011;1480;51.456;6.670;2023-12-07T12:50:31;16.40;;;8.30;;
2940;SDS011;1480;51.456;6.670;2023-12-07T12:53:00;16.17;;;8.50;;
2940;SDS011;1480;51.456;6.670;2023-12-07T12:55:30;16.83;;;8.90;;
2940;SDS011;1480;51.456;6.670;2023-12-07T12:57:57;13.27;;;7.93;;
2940;SDS011;1480;51.456;6.670;2023-12-07T13:00:25;10.03;;;7.20;;
2940;SDS011;1480;51.456;6.670;2023-12-07T13:02:52;10.23;;;7.40;;
2940;SDS011;1480;51.456;6.670;2023-12-07T13:05:19;16.20;;;7.90;;
2940;SDS011;1480;51.456;6.670;2023-12-07T13:07:46;13.97;;;8.20;;
2940;SDS011;1480;51.456;6.670;2023-12-07T13:10:14;15.47;;;7.47;;
2940;SDS011;1480;51.456;6.670;2023-12-07T13:12:40;9.90;;;7.10;;
2940;SDS011;1480;51.456;6.670;2023-12-07T13:15:08;16.57;;;8.40;;
2940;SDS011;1480;51.456;6.670;2023-12-07T13:17:37;11.77;;;7.40;;
2940;SDS011;1480;51.456;6.670;2023-12-07T13:20:04;19.53;;;8.17;;
2940;SDS011;1480;51.456;6.670;2023-12-07T13:22:31;9.87;;;6.17;;
2940;SDS011;1480;51.456;6.670;2023-12-07T13:24:58;16.00;;;7.90;;
2940;SDS011;1480;51.456;6.670;2023-12-07T13:27:24;11.60;;;6.90;;
2940;SDS011;1480;51.456;6.670;2023-12-07T13:29:51;10.60;;;5.93;;
2940;SDS011;1480;51.456;6.670;2023-12-07T13:32:18;15.87;;;7.67;;
2940;SDS011;1480;51.456;6.670;2023-12-07T13:34:46;11.80;;;7.80;;
2940;SDS011;1480;51.456;6.670;2023-12-07T13:37:13;16.13;;;8.27;;
2940;SDS011;1480;51.456;6.670;2023-12-07T13:39:39;11.90;;;7.50;;
2940;SDS011;1480;51.456;6.670;2023-12-07T13:42:08;8.83;;;5.93;;
2940;SDS011;1480;51.456;6.670;2023-12-07T13:44:34;6.23;;;5.10;;
2940;SDS011;1480;51.456;6.670;2023-12-07T13:47:01;12.70;;;7.37;;
2940;SDS011;1480;51.456;6.670;2023-12-07T13:49:29;14.27;;;6.87;;
2940;SDS011;1480;51.456;6.670;2023-12-07T13:51:57;9.87;;;6.97;;
2940;SDS011;1480;51.456;6.670;2023-12-07T13:54:25;13.30;;;7.50;;
2940;SDS011;1480;51.456;6.670;2023-12-07T13:56:51;9.90;;;5.90;;
2940;SDS011;1480;51.456;6.670;2023-12-07T13:59:18;9.30;;;6.13;;
2940;SDS011;1480;51.456;6.670;2023-12-07T14:01:45;8.80;;;6.23;;
2940;SDS011;1480;51.456;6.670;2023-12-07T14:04:11;6.17;;;5.30;;
2940;SDS011;1480;51.456;6.670;2023-12-07T14:06:38;7.73;;;5.37;;
2940;SDS011;1480;51.456;6.670;2023-12-07T14:09:06;9.17;;;6.03;;
2940;SDS011;1480;51.456;6.670;2023-12-07T14:11:33;9.97;;;6.53;;
2940;SDS011;1480;51.456;6.670;2023-12-07T14:13:59;11.33;;;6.37;;
2940;SDS011;1480;51.456;6.670;2023-12-07T14:16:28;9.30;;;6.43;;
2940;SDS011;1480;51.456;6.670;2023-12-07T14:18:55;9.63;;;6.20;;
2940;SDS011;1480;51.456;6.670;2023-12-07T14:21:22;10.17;;;6.10;;
2940;SDS011;1480;51.456;6.670;2023-12-07T14:23:50;8.30;;;5.90;;
2940;SDS011;1480;51.456;6.670;2023-12-07T14:26:20;9.60;;;5.70;;
2940;SDS011;1480;51.456;6.670;2023-12-07T14:28:47;11.83;;;7.07;;
2940;SDS011;1480;51.456;6.670;2023-12-07T14:31:14;10.70;;;5.37;;
2940;SDS011;1480;51.456;6.670;2023-12-07T14:33:42;8.93;;;5.77;;
2940;SDS011;1480;51.456;6.670;2023-12-07T14:36:10;12.93;;;6.70;;
2940;SDS011;1480;51.456;6.670;2023-12-07T14:38:37;8.33;;;6.00;;
2940;SDS011;1480;51.456;6.670;2023-12-07T14:41:04;14.13;;;5.43;;
2940;SDS011;1480;51.456;6.670;2023-12-07T14:43:33;12.97;;;7.33;;
2940;SDS011;1480;51.456;6.670;2023-12-07T14:46:00;11.13;;;6.23;;
2940;SDS011;1480;51.456;6.670;2023-12-07T14:48:28;9.27;;;5.40;;
2940;SDS011;1480;51.456;6.670;2023-12-07T14:50:55;10.13;;;6.07;;